Brandon, Wisconsin
Current Conditions -  °F | °C
As of 6:53 AM on Friday 31 Oct 2014 (Local Time) from KFLD Reporting Station
Overcast Overcast  
Wind Chill: 24°   Ceiling: 4000
Heat Index: 35°   Visibility: 10mi
Dew Point: 24°   Wind: 22mph
Humidity: 64%   Direction: 350°N
Pressure: 30.17"   Gusts: 39mph
Location:  43.74°N, 88.78°W
Report Text: KFLD 311153Z AUTO 35019G34KT 10SM OVC040 02/M04 A3017 RMK AO2 PK WND 36035/1119 SLP223 60000 T00171044 10050 20017 51034
Loading
Personal Weather Stations






























Interactive Weather Map New forecast layout! Learn more

10-Day Weather Forecast

Advertisements
Track Severe Weather on mobile